createdAt,value
2018-10-09T00:01:24.157Z,101241.97
2018-10-09T00:03:52.221Z,101246.19
2018-10-09T00:06:20.261Z,101245.24
2018-10-09T00:08:48.389Z,101246.50
2018-10-09T00:11:16.403Z,101241.50
2018-10-09T00:13:44.429Z,101249.74
2018-10-09T00:16:12.443Z,101258.20
2018-10-09T00:18:40.620Z,101257.41
2018-10-09T00:21:08.851Z,101246.17
2018-10-09T00:23:37.033Z,101251.03
2018-10-09T00:26:05.322Z,101247.92
2018-10-09T00:28:33.362Z,101250.97
2018-10-09T00:31:01.405Z,101254.14
2018-10-09T00:33:29.521Z,101252.73
2018-10-09T00:35:57.743Z,101245.76
2018-10-09T00:38:26.009Z,101253.73
2018-10-09T00:40:54.161Z,101256.12
2018-10-09T00:43:22.437Z,101263.03
2018-10-09T00:45:50.536Z,101263.23
2018-10-09T00:48:18.586Z,101258.80
2018-10-09T00:50:46.905Z,101260.59
2018-10-09T00:53:15.045Z,101264.13
2018-10-09T00:55:43.248Z,101262.23
2018-10-09T00:58:11.460Z,101261.84
2018-10-09T01:00:39.720Z,101261.84
2018-10-09T01:03:07.772Z,101263.64
2018-10-09T01:05:35.899Z,101263.38
2018-10-09T01:08:04.785Z,101260.48
2018-10-09T01:10:32.956Z,101257.62
2018-10-09T01:13:00.984Z,101255.67
2018-10-09T01:15:29.048Z,101253.19
2018-10-09T01:17:57.131Z,101253.83
2018-10-09T01:20:31.247Z,101244.81
2018-10-09T01:23:00.229Z,101250.23
2018-10-09T01:25:28.400Z,101241.54
2018-10-09T01:27:56.572Z,101243.47
2018-10-09T01:30:24.617Z,101247.25
2018-10-09T01:32:52.693Z,101240.02
2018-10-09T01:35:20.734Z,101239.08
2018-10-09T01:37:48.821Z,101241.87
2018-10-09T01:40:16.865Z,101238.03
2018-10-09T01:42:45.017Z,101229.19
2018-10-09T01:45:13.049Z,101230.23
2018-10-09T01:47:41.084Z,101231.65
2018-10-09T01:50:09.193Z,101228.72
2018-10-09T01:52:37.237Z,101223.74
2018-10-09T01:55:05.989Z,101231.81
2018-10-09T01:57:34.041Z,101230.39
2018-10-09T02:00:02.131Z,101231.81
2018-10-09T02:02:30.181Z,101235.89
2018-10-09T02:04:58.216Z,101235.47
2018-10-09T02:07:26.277Z,101233.25
2018-10-09T02:09:54.481Z,101229.09
2018-10-09T02:12:22.710Z,101219.58
2018-10-09T02:14:50.744Z,101215.22
2018-10-09T02:17:18.889Z,101218.84
2018-10-09T02:19:46.961Z,101214.90
2018-10-09T02:22:15.072Z,101213.52
2018-10-09T02:24:43.146Z,101221.58
2018-10-09T02:27:11.268Z,101215.75
2018-10-09T02:29:39.306Z,101216.69
2018-10-09T02:32:07.549Z,101211.11
2018-10-09T02:34:35.609Z,101217.44
2018-10-09T02:37:03.766Z,101217.34
2018-10-09T02:39:31.861Z,101221.39
2018-10-09T02:42:00.255Z,101222.22
2018-10-09T02:44:28.341Z,101209.41
2018-10-09T02:46:56.384Z,101210.73
2018-10-09T02:49:24.396Z,101210.27
2018-10-09T02:51:52.510Z,101212.58
2018-10-09T02:55:24.097Z,101207.08
2018-10-09T02:57:52.105Z,101208.81
2018-10-09T03:00:20.279Z,101197.86
2018-10-09T03:02:48.315Z,101203.72
2018-10-09T03:05:16.327Z,101199.56
2018-10-09T03:07:44.402Z,101189.66
2018-10-09T03:10:12.474Z,101191.36
2018-10-09T03:12:40.534Z,101188.08
2018-10-09T03:15:08.581Z,101187.94
2018-10-09T03:17:36.708Z,101182.56
2018-10-09T03:20:04.805Z,101180.84
2018-10-09T03:22:32.849Z,101186.03
2018-10-09T03:25:00.925Z,101183.41
2018-10-09T03:27:28.997Z,101192.02
2018-10-09T03:29:57.042Z,101199.92
2018-10-09T03:32:25.061Z,101196.83
2018-10-09T03:34:53.234Z,101208.62
2018-10-09T03:37:21.261Z,101220.86
2018-10-09T03:39:49.269Z,101217.70
2018-10-09T03:42:17.415Z,101224.08
2018-10-09T03:44:45.496Z,101232.98
2018-10-09T03:47:13.549Z,101230.28
2018-10-09T03:49:41.609Z,101218.64
2018-10-09T03:54:44.344Z,101202.42
2018-10-09T03:57:12.376Z,101201.64
2018-10-09T03:59:40.573Z,101198.81
2018-10-09T04:02:08.597Z,101195.33
2018-10-09T04:04:36.625Z,101203.23
2018-10-09T04:07:04.837Z,101204.08
2018-10-09T04:09:32.884Z,101199.77
2018-10-09T04:12:00.911Z,101202.70
2018-10-09T04:14:28.979Z,101203.30
2018-10-09T04:16:57.102Z,101207.95
2018-10-09T04:19:25.224Z,101216.14
2018-10-09T04:21:53.214Z,101217.05
2018-10-09T04:24:21.523Z,101216.00
2018-10-09T04:26:49.541Z,101217.12
2018-10-09T04:29:17.667Z,101213.09
2018-10-09T04:31:45.740Z,101220.66
2018-10-09T04:34:13.761Z,101212.90
2018-10-09T04:36:41.933Z,101207.05
2018-10-09T04:39:10.433Z,101208.42
2018-10-09T04:41:38.593Z,101196.77
2018-10-09T04:44:06.845Z,101193.34
2018-10-09T04:46:34.946Z,101201.70
2018-10-09T04:49:02.990Z,101199.13
2018-10-09T04:51:31.503Z,101201.05
2018-10-09T04:53:59.603Z,101200.91
2018-10-09T04:56:27.741Z,101214.70
2018-10-09T04:58:55.757Z,101213.08
2018-10-09T05:01:23.876Z,101202.41
2018-10-09T05:03:53.009Z,101185.29
2018-10-09T05:06:21.201Z,101190.17
2018-10-09T05:08:49.210Z,101197.28
2018-10-09T05:11:17.241Z,101210.91
2018-10-09T05:13:45.286Z,101209.14
2018-10-09T05:16:13.469Z,101206.13
2018-10-09T05:18:41.518Z,101213.37
2018-10-09T05:21:09.536Z,101200.68
2018-10-09T05:23:37.693Z,101204.95
2018-10-09T05:26:05.768Z,101222.25
2018-10-09T05:28:33.781Z,101222.91
2018-10-09T05:31:02.347Z,101216.79
2018-10-09T05:33:30.408Z,101214.68
2018-10-09T05:35:58.418Z,101209.27
2018-10-09T05:38:26.622Z,101209.80
2018-10-09T05:40:54.694Z,101202.41
2018-10-09T05:43:22.785Z,101201.10
2018-10-09T05:45:50.866Z,101202.70
2018-10-09T05:48:19.295Z,101214.80
2018-10-09T05:50:47.333Z,101217.04
2018-10-09T05:53:15.345Z,101222.81
2018-10-09T05:55:43.366Z,101239.91
2018-10-09T05:58:11.473Z,101236.02
2018-10-09T06:00:39.479Z,101237.44
2018-10-09T06:03:07.663Z,101237.97
2018-10-09T06:05:35.688Z,101243.94
2018-10-09T06:08:03.886Z,101243.66
2018-10-09T06:10:32.161Z,101243.71
2018-10-09T06:13:00.173Z,101241.84
2018-10-09T06:15:28.432Z,101251.76
2018-10-09T06:17:56.465Z,101260.25
2018-10-09T06:20:24.539Z,101268.55
2018-10-09T06:22:52.591Z,101263.39
2018-10-09T06:25:20.638Z,101262.02
2018-10-09T06:27:48.679Z,101262.34
2018-10-09T06:30:16.969Z,101263.34
2018-10-09T06:32:45.158Z,101267.87
2018-10-09T06:35:13.285Z,101268.34
2018-10-09T06:37:41.341Z,101267.97
2018-10-09T06:40:09.522Z,101276.97
2018-10-09T06:42:37.571Z,101285.84
2018-10-09T06:45:05.645Z,101284.89
2018-10-09T06:47:33.730Z,101282.04
2018-10-09T06:50:01.950Z,101286.53
2018-10-09T06:52:30.033Z,101284.66
2018-10-09T06:54:58.122Z,101294.13
2018-10-09T06:57:26.320Z,101304.94
2018-10-09T06:59:54.585Z,101300.38
2018-10-09T07:02:22.806Z,101293.72
2018-10-09T07:04:50.902Z,101300.81
2018-10-09T07:07:19.142Z,101314.17
2018-10-09T07:09:47.281Z,101327.54
2018-10-09T07:12:15.822Z,101319.39
2018-10-09T07:14:44.157Z,101328.59
2018-10-09T07:17:12.372Z,101334.14
2018-10-09T07:22:18.890Z,101349.30
2018-10-09T07:24:48.033Z,101357.36
2018-10-09T07:27:16.091Z,101358.80
2018-10-09T07:29:44.153Z,101363.00
2018-10-09T07:32:12.406Z,101362.52
2018-10-09T07:34:40.501Z,101363.45
2018-10-09T07:37:08.545Z,101361.75
2018-10-09T07:39:37.634Z,101363.33
2018-10-09T07:42:05.849Z,101346.50
2018-10-09T07:44:33.894Z,101342.32
2018-10-09T07:47:02.016Z,101347.52
2018-10-09T07:49:30.144Z,101342.65
2018-10-09T07:51:58.243Z,101340.62
2018-10-09T07:54:26.283Z,101348.19
2018-10-09T07:56:54.327Z,101347.84
2018-10-09T07:59:22.646Z,101356.59
2018-10-09T08:01:51.737Z,101353.14
2018-10-09T08:04:19.962Z,101351.00
2018-10-09T08:06:48.018Z,101357.64
2018-10-09T08:09:16.038Z,101360.18
2018-10-09T08:11:44.526Z,101360.88
2018-10-09T08:14:12.622Z,101370.77
2018-10-09T08:16:40.683Z,101374.72
2018-10-09T08:19:08.787Z,101378.31
2018-10-09T08:21:36.875Z,101382.70
2018-10-09T08:24:04.918Z,101382.87
2018-10-09T08:26:32.989Z,101383.19
2018-10-09T08:29:01.039Z,101394.05
2018-10-09T08:31:29.168Z,101396.18
2018-10-09T08:33:57.186Z,101397.64
2018-10-09T08:36:25.239Z,101396.50
2018-10-09T08:38:53.270Z,101402.50
2018-10-09T08:41:21.352Z,101401.23
2018-10-09T08:43:49.398Z,101402.86
2018-10-09T08:46:17.670Z,101396.67
2018-10-09T08:48:45.717Z,101400.08
2018-10-09T08:51:13.828Z,101398.75
2018-10-09T08:53:42.043Z,101392.31
2018-10-09T08:56:10.298Z,101393.43
2018-10-09T08:58:38.375Z,101391.34
2018-10-09T09:01:06.466Z,101386.86
2018-10-09T09:03:34.770Z,101386.48
2018-10-09T09:06:02.791Z,101391.20
2018-10-09T09:08:30.823Z,101392.91
2018-10-09T09:10:58.965Z,101395.34
2018-10-09T09:13:27.255Z,101391.02
2018-10-09T09:15:55.302Z,101398.16
2018-10-09T09:18:23.566Z,101395.11
2018-10-09T09:20:51.715Z,101394.27
2018-10-09T09:23:19.816Z,101390.50
2018-10-09T09:25:47.920Z,101393.84
2018-10-09T09:28:15.943Z,101392.70
2018-10-09T09:30:44.118Z,101391.12
2018-10-09T09:33:12.345Z,101385.48
2018-10-09T09:35:40.277Z,101392.80
2018-10-09T09:38:08.651Z,101380.39
2018-10-09T09:40:36.734Z,101382.11
2018-10-09T09:43:04.909Z,101384.95
2018-10-09T09:45:32.984Z,101380.38
2018-10-09T09:48:01.043Z,101377.75
2018-10-09T09:50:29.176Z,101372.84
2018-10-09T09:52:57.205Z,101375.87
2018-10-09T09:55:25.256Z,101377.19
2018-10-09T09:57:53.506Z,101374.29
2018-10-09T10:00:26.794Z,101379.33
2018-10-09T10:02:54.836Z,101369.86
2018-10-09T10:05:22.977Z,101368.02
2018-10-09T10:07:51.004Z,101361.16
2018-10-09T10:10:19.065Z,101360.17
2018-10-09T10:12:47.090Z,101365.02
2018-10-09T10:15:15.361Z,101361.39
2018-10-09T10:17:43.614Z,101362.55
2018-10-09T10:20:12.022Z,101361.02
2018-10-09T10:22:40.096Z,101356.81
2018-10-09T10:25:09.450Z,101356.28
2018-10-09T10:27:37.535Z,101357.26
2018-10-09T10:30:05.926Z,101358.50
2018-10-09T10:32:33.993Z,101360.09
2018-10-09T10:35:02.183Z,101370.08
2018-10-09T10:37:30.258Z,101365.20
2018-10-09T10:39:58.431Z,101363.13
2018-10-09T10:42:26.486Z,101368.83
2018-10-09T10:44:54.514Z,101369.78
2018-10-09T10:47:22.582Z,101362.53
2018-10-09T10:49:50.642Z,101358.66
2018-10-09T10:52:18.718Z,101360.16
2018-10-09T10:54:46.804Z,101355.89
2018-10-09T10:57:14.842Z,101349.84
2018-10-09T10:59:42.870Z,101349.30
2018-10-09T11:02:10.922Z,101346.31
2018-10-09T11:04:38.975Z,101349.13
2018-10-09T11:07:07.150Z,101349.06
2018-10-09T11:09:35.205Z,101347.95
2018-10-09T11:12:03.262Z,101353.00
2018-10-09T11:14:32.333Z,101356.95
2018-10-09T11:17:00.395Z,101360.33
2018-10-09T11:19:28.509Z,101355.20
2018-10-09T11:21:56.667Z,101342.14
2018-10-09T11:24:24.723Z,101339.95
2018-10-09T11:26:53.014Z,101332.95
2018-10-09T11:29:21.182Z,101328.08
2018-10-09T11:31:49.222Z,101334.27
2018-10-09T11:34:17.292Z,101332.25
2018-10-09T11:39:12.545Z,101325.78
2018-10-09T11:41:40.624Z,101317.08
2018-10-09T11:44:09.012Z,101321.55
2018-10-09T11:46:37.502Z,101317.17
2018-10-09T11:49:06.061Z,101327.92
2018-10-09T11:51:34.146Z,101319.00
2018-10-09T11:54:02.273Z,101315.33
2018-10-09T11:56:30.558Z,101313.25
2018-10-09T11:58:58.703Z,101306.22
2018-10-09T12:01:26.804Z,101299.50
2018-10-09T12:03:55.049Z,101292.08
2018-10-09T12:06:23.669Z,101291.52
2018-10-09T12:08:51.889Z,101289.48
2018-10-09T12:11:19.927Z,101296.81
2018-10-09T12:13:48.317Z,101295.47
2018-10-09T12:16:16.602Z,101290.70
2018-10-09T12:18:44.690Z,101289.43
2018-10-09T12:21:12.904Z,101292.55
2018-10-09T12:23:41.002Z,101301.35
2018-10-09T12:26:09.201Z,101292.61
2018-10-09T12:28:37.595Z,101305.80
2018-10-09T12:31:05.641Z,101295.35
2018-10-09T12:33:33.819Z,101298.42
2018-10-09T12:36:02.041Z,101295.89
2018-10-09T12:38:30.324Z,101298.36
2018-10-09T12:40:58.481Z,101285.55
2018-10-09T12:43:26.684Z,101282.67
2018-10-09T12:45:55.082Z,101279.14
2018-10-09T12:48:23.244Z,101277.63
2018-10-09T12:50:51.318Z,101281.16
2018-10-09T12:55:45.159Z,101278.39
2018-10-09T12:58:13.225Z,101274.58
2018-10-09T13:00:41.378Z,101276.94
2018-10-09T13:03:09.458Z,101268.23
2018-10-09T13:05:37.481Z,101263.53
2018-10-09T13:08:05.730Z,101262.07
2018-10-09T13:10:33.821Z,101264.74
2018-10-09T13:13:01.908Z,101260.98
2018-10-09T13:15:29.970Z,101257.83
2018-10-09T13:17:58.043Z,101252.95
2018-10-09T13:20:26.145Z,101244.51
2018-10-09T13:22:54.303Z,101245.06
2018-10-09T13:25:22.454Z,101243.56
2018-10-09T13:27:50.598Z,101244.86
2018-10-09T13:30:18.675Z,101242.16
2018-10-09T13:32:46.774Z,101239.77
2018-10-09T13:35:14.814Z,101237.06
2018-10-09T13:37:43.018Z,101237.06
2018-10-09T13:40:11.069Z,101239.69
2018-10-09T13:42:39.165Z,101236.56
2018-10-09T13:45:07.418Z,101234.94
2018-10-09T13:47:35.551Z,101228.99
2018-10-09T13:50:03.559Z,101223.25
2018-10-09T13:52:31.639Z,101226.66
2018-10-09T13:54:59.751Z,101226.69
2018-10-09T13:57:27.826Z,101227.63
2018-10-09T13:59:55.871Z,101221.56
2018-10-09T14:02:23.891Z,101229.80
2018-10-09T14:04:52.067Z,101229.95
2018-10-09T14:07:20.098Z,101231.98
2018-10-09T14:09:48.169Z,101235.17
2018-10-09T14:12:16.254Z,101234.00
2018-10-09T14:14:44.302Z,101230.80
2018-10-09T14:17:12.379Z,101226.55
2018-10-09T14:19:40.469Z,101222.45
2018-10-09T14:22:08.554Z,101228.41
2018-10-09T14:24:36.614Z,101226.19
2018-10-09T14:27:04.695Z,101217.11
2018-10-09T14:29:33.274Z,101223.52
2018-10-09T14:32:01.306Z,101225.89
2018-10-09T14:34:29.360Z,101237.73
2018-10-09T14:36:57.436Z,101230.63
2018-10-09T14:39:25.724Z,101227.03
2018-10-09T14:41:53.787Z,101228.38
2018-10-09T14:44:21.983Z,101234.34
2018-10-09T14:46:50.144Z,101239.34
2018-10-09T14:49:18.122Z,101230.98
2018-10-09T14:51:46.337Z,101224.53
2018-10-09T14:54:14.431Z,101224.56
2018-10-09T14:56:42.510Z,101222.52
2018-10-09T14:59:10.540Z,101225.52
2018-10-09T15:01:38.626Z,101225.41
2018-10-09T15:04:06.839Z,101227.29
2018-10-09T15:06:34.942Z,101224.00
2018-10-09T15:09:03.109Z,101223.78
2018-10-09T15:11:31.158Z,101222.46
2018-10-09T15:13:59.213Z,101218.34
2018-10-09T15:16:27.262Z,101222.80
2018-10-09T15:18:55.334Z,101223.70
2018-10-09T15:21:23.379Z,101222.66
2018-10-09T15:23:51.438Z,101221.16
2018-10-09T15:26:20.573Z,101223.52
2018-10-09T15:28:48.660Z,101229.80
2018-10-09T15:31:16.726Z,101228.91
2018-10-09T15:33:44.778Z,101225.52
2018-10-09T15:36:12.842Z,101228.01
2018-10-09T15:38:40.897Z,101223.97
2018-10-09T15:41:08.977Z,101224.27
2018-10-09T15:43:37.001Z,101224.45
2018-10-09T15:46:05.440Z,101223.46
2018-10-09T15:48:33.510Z,101221.09
2018-10-09T15:51:01.549Z,101217.16
2018-10-09T15:53:29.598Z,101218.33
2018-10-09T15:55:57.641Z,101214.88
2018-10-09T15:58:25.802Z,101226.70
2018-10-09T16:00:54.889Z,101225.17
2018-10-09T16:03:23.030Z,101230.27
2018-10-09T16:05:51.069Z,101224.48
2018-10-09T16:08:19.818Z,101231.27
2018-10-09T16:10:47.886Z,101226.63
2018-10-09T16:13:15.966Z,101225.78
2018-10-09T16:15:44.048Z,101219.20
2018-10-09T16:18:12.098Z,101225.23
2018-10-09T16:20:40.193Z,101221.41
2018-10-09T16:23:08.217Z,101224.98
2018-10-09T16:25:36.271Z,101227.89
2018-10-09T16:28:04.518Z,101221.97
2018-10-09T16:30:32.678Z,101226.97
2018-10-09T16:33:00.788Z,101231.92
2018-10-09T16:35:29.075Z,101229.04
2018-10-09T16:37:57.216Z,101231.38
2018-10-09T16:40:25.343Z,101232.95
2018-10-09T16:42:53.422Z,101231.47
2018-10-09T16:45:21.729Z,101234.02
2018-10-09T16:47:49.933Z,101228.33
2018-10-09T16:50:17.973Z,101230.41
2018-10-09T16:52:46.153Z,101229.55
2018-10-09T16:55:14.206Z,101236.00
2018-10-09T16:57:42.253Z,101236.34
2018-10-09T17:00:10.384Z,101241.80
2018-10-09T17:02:38.453Z,101233.63
2018-10-09T17:05:06.627Z,101237.94
2018-10-09T17:07:34.910Z,101246.73
2018-10-09T17:10:02.934Z,101247.94
2018-10-09T17:12:31.237Z,101240.44
2018-10-09T17:14:59.438Z,101244.36
2018-10-09T17:17:27.507Z,101246.89
2018-10-09T17:19:56.008Z,101249.23
2018-10-09T17:22:24.147Z,101246.64
2018-10-09T17:24:52.346Z,101245.16
2018-10-09T17:27:20.439Z,101247.61
2018-10-09T17:29:48.532Z,101242.72
2018-10-09T17:32:16.714Z,101247.45
2018-10-09T17:34:44.859Z,101250.17
2018-10-09T17:37:13.057Z,101251.38
2018-10-09T17:39:41.292Z,101251.72
2018-10-09T17:42:09.498Z,101254.34
2018-10-09T17:44:37.561Z,101254.73
2018-10-09T17:47:08.766Z,101252.88
2018-10-09T17:49:38.481Z,101262.11
2018-10-09T17:52:07.011Z,101262.66
2018-10-09T17:54:35.110Z,101262.16
2018-10-09T17:57:03.261Z,101259.31
2018-10-09T17:59:31.550Z,101260.78
2018-10-09T18:01:59.620Z,101257.05
2018-10-09T18:04:27.861Z,101256.87
2018-10-09T18:06:56.130Z,101260.66
2018-10-09T18:09:24.158Z,101259.34
2018-10-09T18:11:52.230Z,101258.14
2018-10-09T18:14:20.389Z,101255.94
2018-10-09T18:16:48.457Z,101262.14
2018-10-09T18:19:16.536Z,101262.49
2018-10-09T18:21:44.538Z,101260.92
2018-10-09T18:24:12.671Z,101255.23
2018-10-09T18:26:40.704Z,101250.09
2018-10-09T18:29:08.817Z,101247.67
2018-10-09T18:31:36.834Z,101255.05
2018-10-09T18:34:05.041Z,101244.48
2018-10-09T18:36:33.102Z,101250.66
2018-10-09T18:39:01.351Z,101252.48
2018-10-09T18:41:29.684Z,101249.08
2018-10-09T18:43:57.506Z,101257.17
2018-10-09T18:46:25.634Z,101261.66
2018-10-09T18:48:53.845Z,101263.83
2018-10-09T18:51:21.900Z,101263.33
2018-10-09T18:53:49.926Z,101263.38
2018-10-09T18:56:17.948Z,101267.33
2018-10-09T18:58:46.045Z,101259.08
2018-10-09T19:01:14.046Z,101252.98
2018-10-09T19:03:42.400Z,101258.11
2018-10-09T19:06:10.482Z,101247.56
2018-10-09T19:08:38.531Z,101250.78
2018-10-09T19:11:06.775Z,101255.60
2018-10-09T19:13:34.886Z,101259.59
2018-10-09T19:16:03.006Z,101265.03
2018-10-09T19:18:31.059Z,101261.76
2018-10-09T19:20:59.129Z,101262.70
2018-10-09T19:23:27.468Z,101264.13
2018-10-09T19:25:55.454Z,101268.19
2018-10-09T19:28:23.519Z,101266.11
2018-10-09T19:30:51.694Z,101266.66
2018-10-09T19:33:19.813Z,101267.03
2018-10-09T19:35:47.918Z,101272.45
2018-10-09T19:38:15.978Z,101269.93
2018-10-09T19:40:44.154Z,101274.50
2018-10-09T19:43:12.265Z,101268.88
2018-10-09T19:45:40.418Z,101275.52
2018-10-09T19:48:08.758Z,101272.90
2018-10-09T19:50:36.843Z,101276.35
2018-10-09T19:53:04.890Z,101277.36
2018-10-09T19:55:32.950Z,101278.29
2018-10-09T19:58:00.993Z,101280.95
2018-10-09T20:00:29.109Z,101276.84
2018-10-09T20:02:57.318Z,101272.67
2018-10-09T20:05:25.625Z,101276.88
2018-10-09T20:07:53.810Z,101275.00
2018-10-09T20:10:21.792Z,101282.17
2018-10-09T20:12:49.815Z,101280.78
2018-10-09T20:15:17.902Z,101285.92
2018-10-09T20:17:45.958Z,101281.58
2018-10-09T20:20:14.037Z,101285.42
2018-10-09T20:22:42.183Z,101291.31
2018-10-09T20:25:10.309Z,101287.54
2018-10-09T20:27:38.496Z,101288.58
2018-10-09T20:30:06.559Z,101288.19
2018-10-09T20:32:34.617Z,101292.25
2018-10-09T20:35:02.914Z,101293.19
2018-10-09T20:37:30.945Z,101287.71
2018-10-09T20:39:59.029Z,101287.71
2018-10-09T20:42:27.094Z,101290.73
2018-10-09T20:44:55.134Z,101287.91
2018-10-09T20:47:45.057Z,101296.72
2018-10-09T20:50:14.011Z,101298.53
2018-10-09T20:52:42.146Z,101296.07
2018-10-09T20:55:10.529Z,101297.48
2018-10-09T20:57:38.645Z,101302.50
2018-10-09T21:00:06.741Z,101302.14
2018-10-09T21:02:34.984Z,101297.40
2018-10-09T21:05:05.173Z,101297.56
2018-10-09T21:07:33.217Z,101300.89
2018-10-09T21:10:01.720Z,101304.11
2018-10-09T21:12:30.034Z,101301.73
2018-10-09T21:14:58.085Z,101297.48
2018-10-09T21:17:26.209Z,101304.22
2018-10-09T21:19:54.257Z,101304.02
2018-10-09T21:22:22.345Z,101294.93
2018-10-09T21:24:50.373Z,101297.58
2018-10-09T21:27:18.378Z,101296.61
2018-10-09T21:29:46.556Z,101294.90
2018-10-09T21:32:14.579Z,101294.33
2018-10-09T21:34:42.913Z,101294.13
2018-10-09T21:37:11.118Z,101292.25
2018-10-09T21:39:39.405Z,101292.81
2018-10-09T21:42:07.435Z,101293.19
2018-10-09T21:44:35.506Z,101292.53
2018-10-09T21:47:03.625Z,101289.59
2018-10-09T21:49:31.755Z,101285.78
2018-10-09T21:51:59.881Z,101284.45
2018-10-09T21:54:27.922Z,101294.02
2018-10-09T21:56:56.039Z,101293.83
2018-10-09T21:59:24.108Z,101291.63
2018-10-09T22:01:52.221Z,101292.95
2018-10-09T22:04:20.406Z,101291.13
2018-10-09T22:06:49.548Z,101288.38
2018-10-09T22:09:17.641Z,101301.88
2018-10-09T22:11:45.823Z,101292.88
2018-10-09T22:14:13.947Z,101299.97
2018-10-09T22:16:42.014Z,101294.09
2018-10-09T22:19:10.230Z,101295.97
2018-10-09T22:21:38.414Z,101291.70
2018-10-09T22:24:06.502Z,101300.34
2018-10-09T22:26:34.644Z,101293.13
2018-10-09T22:29:02.787Z,101289.23
2018-10-09T22:31:31.155Z,101292.44
2018-10-09T22:33:59.247Z,101281.04
2018-10-09T22:36:27.398Z,101283.10
2018-10-09T22:38:55.522Z,101281.66
2018-10-09T22:41:23.570Z,101279.53
2018-10-09T22:43:51.713Z,101277.36
2018-10-09T22:46:19.838Z,101287.48
2018-10-09T22:48:47.999Z,101283.51
2018-10-09T22:51:16.029Z,101285.67
2018-10-09T22:53:44.090Z,101290.93
2018-10-09T22:56:12.165Z,101297.08
2018-10-09T22:58:40.302Z,101294.53
2018-10-09T23:01:08.556Z,101291.66
2018-10-09T23:03:36.703Z,101300.86
2018-10-09T23:06:04.801Z,101302.38
2018-10-09T23:08:32.968Z,101296.48
2018-10-09T23:11:01.170Z,101300.38
2018-10-09T23:13:29.312Z,101303.06
2018-10-09T23:15:57.358Z,101304.74
2018-10-09T23:18:25.504Z,101309.81
2018-10-09T23:20:53.662Z,101303.90
2018-10-09T23:23:21.681Z,101309.48
2018-10-09T23:25:49.772Z,101308.05
2018-10-09T23:28:17.803Z,101301.87
2018-10-09T23:30:45.911Z,101299.81
2018-10-09T23:33:13.960Z,101301.68
2018-10-09T23:35:42.201Z,101303.50
2018-10-09T23:38:10.254Z,101300.93
2018-10-09T23:40:38.286Z,101297.91
2018-10-09T23:43:06.383Z,101293.58
2018-10-09T23:45:34.633Z,101297.14
2018-10-09T23:48:02.641Z,101299.06
2018-10-09T23:50:30.670Z,101297.14
2018-10-09T23:52:58.782Z,101301.75
2018-10-09T23:55:26.793Z,101295.98
2018-10-09T23:57:54.834Z,101291.62
